KADC Airport (Wadena Muni) Information

FAA: ADC - ICAO: KADC

KADC Airport Location

State Minnesota
County Otter Tail
City Wadena
KADC Airport is 3 miles west of Wadena, MN.
Latitude 46-26-59.8020N
Longitude 095-12-38.9953W
Elevation 1,368ft

KADC Airport METARs

METAR KADC 282257Z AUTO 04004KT 10SM CLR 24/14 A2955 RMK AO2 TSNO
Altimeter 29.55"
Temperature 24.0°C (75.2°F)
Wind 40° at 4KT
Clouds Skies are clear.
Visibility 10.0mi
Time observed: 2022-05-28T22:57:00Z

KADC Airport Details

Status Operational
Activation October 1998
Ownership Public
Usage Public
Chart TWIN CITIES
ATC on-site No
Beacon schedule sunset-sunrise
Beacon color clear green

KADC Airport Contacts

Owner CITY OF WADENA
Owner address 8 BRYANT AVE SE, PO BOX 30, BOX 30, WADENA, MN 56482
Owner phone 218-631-7707
Manager JOHN BURGESS
Manager address BOX 576, 602 MAIN ST., TOWER, MN 55790
Manager phone (218) 780-5902

KADC Airport (Wadena Muni) Radio Frequencies

KADC (Airport) Radio Frequencies

UNICOM 122.8
Common traffic advisory frequency (CTAF) 122.8